Time;durP1;ratioP1;P1;durP2;ratioP2;P2;SDS_P1;SDS_P2;PMS_P1;PMS_P2;Temp;Humidity;BMP_temperature;BMP_pressure;BME280_temperature;BME280_humidity;BME280_pressure;Samples;Min_cycle;Max_cycle;Signal;HPM_P1;HPM_P2
2021/12/09 00:01:01;;;;;;;21.63;10.15;;;;;;;;;;4974750;28;97192;-73
2021/12/09 00:03:31;;;;;;;20.43;9.70;;;;;;;;;;4994656;28;95245;-73
2021/12/09 00:05:58;;;;;;;26.02;10.35;;;;;;;;;;4979846;28;97568;-73
2021/12/09 00:08:27;;;;;;;21.15;9.57;;;;;;;;;;4972442;28;96910;-73
2021/12/09 00:10:54;;;;;;;19.55;9.90;;;;;;;;;;4972639;28;97340;-73
2021/12/09 00:13:21;;;;;;;25.63;10.30;;;;;;;;;;4980444;28;96171;-73
2021/12/09 00:15:48;;;;;;;17.27;10.90;;;;;;;;;;4991976;28;95345;-73
2021/12/09 00:18:14;;;;;;;22.80;10.70;;;;;;;;;;4974794;28;97036;-72
2021/12/09 00:20:41;;;;;;;19.98;10.38;;;;;;;;;;4971646;28;97324;-73
2021/12/09 00:23:08;;;;;;;15.70;9.48;;;;;;;;;;4971878;28;95425;-73
2021/12/09 00:25:35;;;;;;;18.83;10.25;;;;;;;;;;4976940;28;96868;-73
2021/12/09 00:28:02;;;;;;;19.60;9.98;;;;;;;;;;4974838;28;95746;-73
2021/12/09 00:30:30;;;;;;;24.02;10.25;;;;;;;;;;4984852;28;96824;-73
2021/12/09 00:32:57;;;;;;;22.65;11.10;;;;;;;;;;4965315;28;97121;-73
2021/12/09 00:35:29;;;;;;;21.40;10.55;;;;;;;;;;4963236;28;95376;-73
2021/12/09 00:38:08;;;;;;;18.92;10.30;;;;;;;;;;4975370;28;96793;-73
2021/12/09 00:40:34;;;;;;;18.35;9.82;;;;;;;;;;4975447;28;96235;-73
2021/12/09 00:43:01;;;;;;;18.85;9.82;;;;;;;;;;4992011;28;95295;-73
2021/12/09 00:45:28;;;;;;;25.73;9.63;;;;;;;;;;4988837;28;96827;-72
2021/12/09 00:47:55;;;;;;;22.02;10.10;;;;;;;;;;4985846;28;95465;-73
2021/12/09 00:50:22;;;;;;;22.08;9.88;;;;;;;;;;4994496;28;97106;-73
2021/12/09 00:52:49;;;;;;;19.42;10.10;;;;;;;;;;4994423;28;97662;-73
2021/12/09 00:55:16;;;;;;;18.23;9.07;;;;;;;;;;4989830;28;95768;-72
2021/12/09 00:57:42;;;;;;;15.63;8.82;;;;;;;;;;4975276;28;99551;-73
2021/12/09 01:00:10;;;;;;;18.80;10.13;;;;;;;;;;4974613;28;97281;-73
2021/12/09 01:02:37;;;;;;;21.20;9.20;;;;;;;;;;4974092;28;95342;-73
2021/12/09 01:05:04;;;;;;;18.70;8.75;;;;;;;;;;4975244;28;96914;-72
2021/12/09 01:07:31;;;;;;;17.95;8.93;;;;;;;;;;4980129;28;96008;-73
2021/12/09 01:09:57;;;;;;;18.98;9.02;;;;;;;;;;4974766;28;97116;-73
2021/12/09 01:12:23;;;;;;;19.52;8.88;;;;;;;;;;4974683;28;97292;-72
2021/12/09 01:14:50;;;;;;;18.85;8.90;;;;;;;;;;4975189;28;96307;-73
2021/12/09 01:17:16;;;;;;;22.40;9.18;;;;;;;;;;4990249;28;97086;-73
2021/12/09 01:19:43;;;;;;;15.57;8.80;;;;;;;;;;4975684;28;97353;-72
2021/12/09 01:22:09;;;;;;;19.30;9.23;;;;;;;;;;4975393;28;95124;-73
2021/12/09 01:24:36;;;;;;;18.25;9.15;;;;;;;;;;4974384;28;96730;-72
2021/12/09 01:27:03;;;;;;;17.60;8.45;;;;;;;;;;4975703;28;97589;-73
2021/12/09 01:29:36;;;;;;;16.75;8.50;;;;;;;;;;4977517;28;95374;-73
2021/12/09 01:32:06;;;;;;;16.48;8.63;;;;;;;;;;4979289;28;97899;-73
2021/12/09 01:34:33;;;;;;;20.13;9.13;;;;;;;;;;4988780;28;95308;-73
2021/12/09 01:36:59;;;;;;;17.77;8.80;;;;;;;;;;4975122;28;97239;-73
2021/12/09 01:39:28;;;;;;;19.63;9.02;;;;;;;;;;4973294;28;97540;-72
2021/12/09 01:41:55;;;;;;;18.70;8.43;;;;;;;;;;4992551;28;95323;-73
2021/12/09 01:44:22;;;;;;;22.30;9.02;;;;;;;;;;4975123;28;97228;-73
2021/12/09 01:46:49;;;;;;;23.10;8.82;;;;;;;;;;4977322;28;97679;-73
2021/12/09 01:49:16;;;;;;;22.08;8.68;;;;;;;;;;4994056;28;95838;-73
2021/12/09 01:51:46;;;;;;;22.27;8.45;;;;;;;;;;4990943;28;97222;-73
2021/12/09 01:54:13;;;;;;;21.65;8.88;;;;;;;;;;4977891;28;95309;-73
2021/12/09 01:56:40;;;;;;;19.48;7.88;;;;;;;;;;4985101;28;96792;-73
2021/12/09 01:59:07;;;;;;;20.60;8.00;;;;;;;;;;4973564;28;97303;-73
2021/12/09 02:01:34;;;;;;;19.23;8.88;;;;;;;;;;4975463;28;95309;-73
2021/12/09 02:04:03;;;;;;;17.85;8.55;;;;;;;;;;4973647;28;96675;-73
2021/12/09 02:06:30;;;;;;;22.27;9.13;;;;;;;;;;4981638;28;97619;-73
2021/12/09 02:08:56;;;;;;;22.88;8.15;;;;;;;;;;4984281;28;95340;-73
2021/12/09 02:11:24;;;;;;;17.40;8.20;;;;;;;;;;4974022;28;96872;-73
2021/12/09 02:13:54;;;;;;;19.70;8.55;;;;;;;;;;4976107;28;97375;-72
2021/12/09 02:16:21;;;;;;;21.33;7.97;;;;;;;;;;4973948;28;96724;-72
2021/12/09 02:18:48;;;;;;;19.85;7.90;;;;;;;;;;4982863;28;97597;-72
2021/12/09 02:21:17;;;;;;;14.77;7.82;;;;;;;;;;4992847;28;95153;-72
2021/12/09 02:23:51;;;;;;;18.08;7.75;;;;;;;;;;4993607;28;97021;-72
2021/12/09 02:26:19;;;;;;;15.80;7.50;;;;;;;;;;4990766;28;97369;-72
2021/12/09 02:28:46;;;;;;;18.80;7.97;;;;;;;;;;4991558;28;95431;-72
2021/12/09 02:31:13;;;;;;;22.15;7.80;;;;;;;;;;4985721;28;97122;-72
2021/12/09 02:33:39;;;;;;;18.55;8.00;;;;;;;;;;4992783;28;97273;-72
2021/12/09 02:36:06;;;;;;;18.35;7.93;;;;;;;;;;4996704;28;95800;-72
2021/12/09 02:38:35;;;;;;;16.30;7.72;;;;;;;;;;4979777;28;97365;-72
2021/12/09 02:41:02;;;;;;;21.23;7.53;;;;;;;;;;4986020;28;95099;-72
2021/12/09 02:43:29;;;;;;;31.08;8.48;;;;;;;;;;4992656;28;97066;-72
2021/12/09 02:45:56;;;;;;;16.10;7.03;;;;;;;;;;4991589;28;97263;-72
2021/12/09 02:48:23;;;;;;;16.63;7.72;;;;;;;;;;4974692;28;95406;-72
2021/12/09 02:50:50;;;;;;;19.40;8.23;;;;;;;;;;4993383;28;96797;-72
2021/12/09 02:53:17;;;;;;;22.75;8.30;;;;;;;;;;4991323;28;97591;-72
2021/12/09 02:55:44;;;;;;;17.63;7.82;;;;;;;;;;4993437;28;95368;-72
2021/12/09 02:58:12;;;;;;;21.73;8.13;;;;;;;;;;4990978;28;97455;-72
2021/12/09 03:00:52;;;;;;;18.80;8.43;;;;;;;;;;4990640;28;95157;-72
2021/12/09 03:03:19;;;;;;;16.13;8.02;;;;;;;;;;4972312;28;96875;-72
2021/12/09 03:05:46;;;;;;;19.40;8.60;;;;;;;;;;4988656;28;97559;-72
2021/12/09 03:08:20;;;;;;;14.25;7.55;;;;;;;;;;4990393;28;95082;-72
2021/12/09 03:10:47;;;;;;;22.48;8.30;;;;;;;;;;4972450;28;97068;-72
2021/12/09 03:13:13;;;;;;;18.83;8.05;;;;;;;;;;4972934;28;97334;-72
2021/12/09 03:15:39;;;;;;;27.13;8.55;;;;;;;;;;4973170;28;95303;-72
2021/12/09 03:18:06;;;;;;;21.67;8.20;;;;;;;;;;4992031;28;97206;-72
2021/12/09 03:20:33;;;;;;;16.77;8.27;;;;;;;;;;4992051;28;95326;-72
2021/12/09 03:22:59;;;;;;;16.45;7.70;;;;;;;;;;4992259;28;97187;-72
2021/12/09 03:25:25;;;;;;;20.13;8.05;;;;;;;;;;4991580;28;97376;-72
2021/12/09 03:27:52;;;;;;;16.98;7.60;;;;;;;;;;4992751;28;95395;-72
2021/12/09 03:30:19;;;;;;;19.02;8.02;;;;;;;;;;4979714;28;96844;-72
2021/12/09 03:32:45;;;;;;;17.30;7.63;;;;;;;;;;4972827;28;97302;-72
2021/12/09 03:35:12;;;;;;;15.35;7.85;;;;;;;;;;4980207;28;95490;-72
2021/12/09 03:37:39;;;;;;;20.80;8.55;;;;;;;;;;4992498;28;96978;-72
2021/12/09 03:40:06;;;;;;;18.98;7.60;;;;;;;;;;4982985;28;97884;-72
2021/12/09 03:42:33;;;;;;;18.98;8.05;;;;;;;;;;4972240;28;96959;-72
2021/12/09 03:45:00;;;;;;;18.60;8.45;;;;;;;;;;4972994;28;97800;-72
2021/12/09 03:47:28;;;;;;;18.13;7.60;;;;;;;;;;4986847;28;96766;-72
2021/12/09 03:49:56;;;;;;;19.88;8.10;;;;;;;;;;4985884;28;97004;-72
2021/12/09 03:52:22;;;;;;;21.65;8.18;;;;;;;;;;4971774;28;97314;-72
2021/12/09 03:54:49;;;;;;;19.58;8.02;;;;;;;;;;4972576;28;95052;-72
2021/12/09 03:57:16;;;;;;;17.00;7.45;;;;;;;;;;4972423;28;96860;-72
2021/12/09 03:59:43;;;;;;;21.60;8.15;;;;;;;;;;4971654;28;97871;-72
2021/12/09 04:02:09;;;;;;;18.95;8.05;;;;;;;;;;4991179;28;95030;-72
2021/12/09 04:04:36;;;;;;;21.00;7.80;;;;;;;;;;4990271;28;97407;-72
2021/12/09 04:07:03;;;;;;;24.88;7.53;;;;;;;;;;4989371;28;95321;-72
2021/12/09 04:09:29;;;;;;;13.27;6.72;;;;;;;;;;4971570;28;96884;-72
2021/12/09 04:11:56;;;;;;;23.35;7.35;;;;;;;;;;4972329;28;97245;-72
2021/12/09 04:14:22;;;;;;;16.73;6.68;;;;;;;;;;4971657;28;95910;-72
2021/12/09 04:16:49;;;;;;;19.20;6.43;;;;;;;;;;4981946;28;96849;-72
2021/12/09 04:19:16;;;;;;;18.13;6.68;;;;;;;;;;4973327;28;96575;-72
2021/12/09 04:21:43;;;;;;;16.58;6.75;;;;;;;;;;4980625;28;95148;-72
2021/12/09 04:24:11;;;;;;;17.80;7.22;;;;;;;;;;4982492;28;96598;-72
2021/12/09 04:26:39;;;;;;;16.95;6.60;;;;;;;;;;4972227;28;95378;-72
2021/12/09 04:29:07;;;;;;;17.48;6.68;;;;;;;;;;4973853;28;96946;-72
2021/12/09 04:31:33;;;;;;;13.52;6.40;;;;;;;;;;4989906;28;96249;-71
2021/12/09 04:34:00;;;;;;;16.27;6.45;;;;;;;;;;4984248;28;95758;-72
2021/12/09 04:36:26;;;;;;;19.33;6.80;;;;;;;;;;4977270;28;96710;-73
2021/12/09 04:38:53;;;;;;;21.23;6.80;;;;;;;;;;4991064;28;97652;-73
2021/12/09 04:41:20;;;;;;;20.13;5.95;;;;;;;;;;4980645;28;95319;-73
2021/12/09 04:43:47;;;;;;;23.23;6.45;;;;;;;;;;4973434;28;97086;-73
2021/12/09 04:46:14;;;;;;;17.77;6.38;;;;;;;;;;4976028;28;95317;-73
2021/12/09 04:48:42;;;;;;;20.88;6.80;;;;;;;;;;4975949;28;96820;-72
2021/12/09 04:51:08;;;;;;;22.80;7.63;;;;;;;;;;4971869;28;97671;-72
2021/12/09 04:53:34;;;;;;;16.83;6.05;;;;;;;;;;4971651;28;95343;-72
2021/12/09 04:56:01;;;;;;;19.20;6.25;;;;;;;;;;4990826;28;97778;-72
2021/12/09 04:58:28;;;;;;;13.38;6.10;;;;;;;;;;4990810;28;97374;-72
2021/12/09 05:00:56;;;;;;;22.00;6.07;;;;;;;;;;4991415;28;95110;-72
2021/12/09 05:03:23;;;;;;;18.33;6.65;;;;;;;;;;4990592;28;96710;-72
2021/12/09 05:05:51;;;;;;;18.05;6.22;;;;;;;;;;4990875;28;97772;-72
2021/12/09 05:08:20;;;;;;;13.90;5.88;;;;;;;;;;4969938;28;97048;-72
2021/12/09 05:10:57;;;;;;;18.90;5.60;;;;;;;;;;4971743;28;97286;-72
2021/12/09 05:13:25;;;;;;;12.98;5.47;;;;;;;;;;4955225;28;95214;-72
2021/12/09 05:15:51;;;;;;;21.45;6.18;;;;;;;;;;4972356;28;97242;-72
2021/12/09 05:18:19;;;;;;;16.35;5.75;;;;;;;;;;4980739;28;96253;-73
2021/12/09 05:20:46;;;;;;;19.02;5.80;;;;;;;;;;4994426;28;95185;-72
2021/12/09 05:23:13;;;;;;;14.80;5.65;;;;;;;;;;4974611;28;97258;-72
2021/12/09 05:25:39;;;;;;;24.85;6.50;;;;;;;;;;4984420;28;97262;-72
2021/12/09 05:28:08;;;;;;;14.57;5.63;;;;;;;;;;4997042;28;95365;-73
2021/12/09 05:30:40;;;;;;;15.07;5.30;;;;;;;;;;4988686;28;97661;-72
2021/12/09 05:33:07;;;;;;;17.48;5.57;;;;;;;;;;4992711;28;95220;-72
2021/12/09 05:35:34;;;;;;;15.70;5.75;;;;;;;;;;4992532;28;96871;-72
2021/12/09 05:38:00;;;;;;;14.80;5.65;;;;;;;;;;4983839;28;97553;-72
2021/12/09 05:40:29;;;;;;;15.65;5.97;;;;;;;;;;4977718;28;95228;-72
2021/12/09 05:42:56;;;;;;;15.45;5.55;;;;;;;;;;4990706;28;96800;-72
2021/12/09 05:45:22;;;;;;;15.68;5.57;;;;;;;;;;4978703;28;97939;-72
2021/12/09 05:47:49;;;;;;;15.38;5.78;;;;;;;;;;4974263;28;95340;-73
2021/12/09 05:50:15;;;;;;;17.30;5.65;;;;;;;;;;4977003;28;97067;-72
2021/12/09 05:52:42;;;;;;;12.75;5.00;;;;;;;;;;4974088;28;95464;-72
2021/12/09 05:55:10;;;;;;;21.52;5.35;;;;;;;;;;4975202;28;96758;-72
2021/12/09 05:57:37;;;;;;;25.25;5.20;;;;;;;;;;4973444;28;96699;-72
2021/12/09 06:00:04;;;;;;;21.00;6.65;;;;;;;;;;4974428;28;95311;-72
2021/12/09 06:02:32;;;;;;;11.25;5.18;;;;;;;;;;4974065;28;97482;-72
2021/12/09 06:04:59;;;;;;;15.63;5.63;;;;;;;;;;4973448;28;97667;-72
2021/12/09 06:07:25;;;;;;;16.15;5.88;;;;;;;;;;4985878;28;95267;-72
2021/12/09 06:09:51;;;;;;;15.35;6.28;;;;;;;;;;4993563;28;96905;-72
2021/12/09 06:12:23;;;;;;;22.75;5.93;;;;;;;;;;4996182;28;97285;-73
2021/12/09 06:14:49;;;;;;;17.08;5.20;;;;;;;;;;4994111;28;96837;-72
2021/12/09 06:17:16;;;;;;;18.13;5.75;;;;;;;;;;4985686;28;97272;-72
2021/12/09 06:19:42;;;;;;;16.90;5.82;;;;;;;;;;4974166;28;95405;-72
2021/12/09 06:22:08;;;;;;;16.50;5.72;;;;;;;;;;4974115;28;96805;-72
2021/12/09 06:24:34;;;;;;;19.58;6.32;;;;;;;;;;4974090;28;97245;-72
2021/12/09 06:27:03;;;;;;;15.00;6.18;;;;;;;;;;4978239;28;95631;-72
2021/12/09 06:29:32;;;;;;;20.73;6.65;;;;;;;;;;4993254;28;95829;-73
2021/12/09 06:32:00;;;;;;;18.95;6.75;;;;;;;;;;4990423;28;96764;-73
2021/12/09 06:34:26;;;;;;;15.50;6.22;;;;;;;;;;4995869;28;95370;-73
2021/12/09 06:36:53;;;;;;;21.17;6.25;;;;;;;;;;4992463;28;96249;-72
2021/12/09 06:39:19;;;;;;;16.58;6.50;;;;;;;;;;4993084;28;95135;-72
2021/12/09 06:41:46;;;;;;;16.13;6.22;;;;;;;;;;4993665;28;96825;-72
2021/12/09 06:44:12;;;;;;;16.13;6.72;;;;;;;;;;4983012;28;97524;-72
2021/12/09 06:46:38;;;;;;;25.05;6.15;;;;;;;;;;4973653;28;95313;-73
2021/12/09 06:49:05;;;;;;;14.15;6.43;;;;;;;;;;4988786;28;96724;-73
2021/12/09 06:51:31;;;;;;;13.48;6.15;;;;;;;;;;4992952;28;96283;-73
2021/12/09 06:53:58;;;;;;;20.08;6.28;;;;;;;;;;4996642;28;95300;-73
2021/12/09 06:56:27;;;;;;;16.27;7.20;;;;;;;;;;4981940;28;97526;-73
2021/12/09 06:58:53;;;;;;;19.88;7.63;;;;;;;;;;4986597;28;95304;-73
2021/12/09 07:01:20;;;;;;;18.80;7.40;;;;;;;;;;4992849;28;96850;-73
2021/12/09 07:03:47;;;;;;;17.00;7.15;;;;;;;;;;4992539;28;97292;-72
2021/12/09 07:06:13;;;;;;;16.33;7.05;;;;;;;;;;4993162;28;95309;-73
2021/12/09 07:08:45;;;;;;;18.83;6.82;;;;;;;;;;4978131;28;96798;-74
2021/12/09 07:11:11;;;;;;;;;;;;;;;;;;4973889;28;95493;-73
2021/12/09 07:13:38;;;;;;;21.23;6.28;;;;;;;;;;4972452;28;118612;-73
2021/12/09 07:16:04;;;;;;;16.20;6.45;;;;;;;;;;4975839;28;97166;-72
2021/12/09 07:18:31;;;;;;;16.02;6.45;;;;;;;;;;4979717;28;95402;-73
2021/12/09 07:20:58;;;;;;;21.42;6.95;;;;;;;;;;4980291;28;96829;-72
2021/12/09 07:23:24;;;;;;;18.80;6.93;;;;;;;;;;4972087;28;97100;-72
2021/12/09 07:25:50;;;;;;;22.95;6.85;;;;;;;;;;4972574;28;95334;-72
2021/12/09 07:28:17;;;;;;;22.45;7.45;;;;;;;;;;4975630;28;95907;-72
2021/12/09 07:30:44;;;;;;;19.77;7.32;;;;;;;;;;4992081;28;97374;-73
2021/12/09 07:33:10;;;;;;;18.83;7.40;;;;;;;;;;4979874;28;95302;-72
2021/12/09 07:35:37;;;;;;;18.70;6.95;;;;;;;;;;4974710;28;96782;-72
2021/12/09 07:38:04;;;;;;;18.63;6.80;;;;;;;;;;4976042;28;97239;-72
2021/12/09 07:40:31;;;;;;;15.27;7.15;;;;;;;;;;4971941;28;96816;-73
2021/12/09 07:42:57;;;;;;;24.02;6.90;;;;;;;;;;4987402;28;97682;-73
2021/12/09 07:45:24;;;;;;;18.40;6.80;;;;;;;;;;4978785;28;95856;-73
2021/12/09 07:47:50;;;;;;;14.73;6.63;;;;;;;;;;4972893;28;96427;-73
2021/12/09 07:50:19;;;;;;;17.20;7.68;;;;;;;;;;4971770;28;97315;-72
2021/12/09 07:52:48;;;;;;;21.13;7.47;;;;;;;;;;4980252;28;95304;-72
2021/12/09 15:33:15;;;;;;;53.17;23.75;;;;;;;;;;5090807;27;97234;-74
2021/12/09 15:35:41;;;;;;;54.72;27.08;;;;;;;;;;5093946;27;95410;-73
2021/12/09 15:38:18;;;;;;;76.07;28.50;;;;;;;;;;5108788;27;97181;-74
2021/12/09 15:41:10;;;;;;;58.15;27.02;;;;;;;;;;5091928;27;96033;-73
2021/12/09 15:44:11;;;;;;;70.40;27.60;;;;;;;;;;5089420;27;95068;-72
2021/12/09 15:47:12;;;;;;;61.90;27.65;;;;;;;;;;5089755;27;94978;-73
2021/12/09 15:50:05;;;;;;;53.30;25.73;;;;;;;;;;5102309;27;96668;-73
2021/12/09 15:52:58;;;;;;;46.47;25.33;;;;;;;;;;5098998;27;95090;-73
2021/12/09 15:55:49;;;;;;;55.38;26.73;;;;;;;;;;5089052;27;95602;-72
2021/12/09 15:58:40;;;;;;;55.13;25.70;;;;;;;;;;5083995;27;95233;-72
2021/12/09 16:06:43;;;;;;;62.50;26.45;;;;;;;;;;5090390;27;95882;-72
2021/12/09 16:09:34;;;;;;;55.97;25.27;;;;;;;;;;5104733;27;95172;-73
2021/12/09 16:12:03;;;;;;;56.03;24.88;;;;;;;;;;5104821;27;97360;-73
2021/12/09 16:14:30;;;;;;;52.35;25.80;;;;;;;;;;5097146;27;95335;-73
2021/12/09 16:17:25;;;;;;;52.83;25.85;;;;;;;;;;5108263;27;95121;-73
2021/12/09 16:20:26;;;;;;;63.63;26.90;;;;;;;;;;5094155;27;95207;-74
2021/12/09 16:23:35;;;;;;;55.50;25.05;;;;;;;;;;5088737;27;95126;-72
2021/12/09 16:26:25;;;;;;;57.47;28.75;;;;;;;;;;5084194;27;95455;-73
2021/12/09 17:24:13;;;;;;;62.20;23.33;;;;;;;;;;5035619;27;1303407;-77
2021/12/09 17:26:42;;;;;;;50.85;22.40;;;;;;;;;;5089234;27;96929;-74
2021/12/09 17:29:09;;;;;;;52.67;23.58;;;;;;;;;;5085518;27;97289;-77
2021/12/09 17:32:00;;;;;;;52.20;22.58;;;;;;;;;;5071283;27;95135;-76
2021/12/09 17:34:50;;;;;;;55.60;25.45;;;;;;;;;;5085931;27;95372;-77
2021/12/09 17:37:41;;;;;;;57.42;24.30;;;;;;;;;;5088779;27;95518;-76
2021/12/09 17:40:31;;;;;;;49.88;22.45;;;;;;;;;;5092608;27;95246;-77
2021/12/09 17:43:22;;;;;;;48.47;22.70;;;;;;;;;;5087593;27;95580;-77
2021/12/09 17:46:13;;;;;;;48.53;22.90;;;;;;;;;;5081153;27;95133;-77
2021/12/09 17:49:05;;;;;;;53.83;23.77;;;;;;;;;;5081311;27;95214;-77
2021/12/09 17:52:06;;;;;;;46.93;23.77;;;;;;;;;;5073138;27;96894;-76
2021/12/09 17:54:56;;;;;;;51.05;23.92;;;;;;;;;;5089174;27;95182;-75
2021/12/09 17:57:47;;;;;;;54.22;23.33;;;;;;;;;;5087682;27;95191;-77
2021/12/09 18:00:39;;;;;;;49.15;23.88;;;;;;;;;;5081789;27;97372;-74
2021/12/09 18:03:06;;;;;;;55.10;23.83;;;;;;;;;;5085914;27;95330;-75
2021/12/09 18:05:42;;;;;;;47.28;22.83;;;;;;;;;;5089980;27;96843;-74
2021/12/09 18:08:32;;;;;;;45.90;21.60;;;;;;;;;;5087027;27;95209;-74
2021/12/09 18:11:26;;;;;;;49.85;23.48;;;;;;;;;;5086746;27;95148;-75
2021/12/09 18:17:18;;;;;;;47.22;21.73;;;;;;;;;;5618142;22;97651;-75
2021/12/09 18:19:45;;;;;;;46.38;23.13;;;;;;;;;;5023130;28;96832;-76
2021/12/09 18:22:12;;;;;;;48.20;22.33;;;;;;;;;;5019763;28;97035;-75
2021/12/09 18:24:44;;;;;;;49.40;22.33;;;;;;;;;;5025309;28;95347;-75
2021/12/09 18:27:10;;;;;;;51.08;22.08;;;;;;;;;;5018348;28;97068;-75
2021/12/09 18:29:38;;;;;;;49.65;22.63;;;;;;;;;;5015870;28;97411;-75
2021/12/09 18:32:05;;;;;;;46.88;21.80;;;;;;;;;;5009732;28;96708;-75
2021/12/09 18:34:33;;;;;;;58.80;21.15;;;;;;;;;;5012120;28;97283;-75
2021/12/09 18:37:00;;;;;;;46.17;20.45;;;;;;;;;;5011205;28;95351;-76
2021/12/09 18:39:31;;;;;;;52.20;22.17;;;;;;;;;;5011885;28;95919;-75
2021/12/09 18:41:58;;;;;;;44.35;21.98;;;;;;;;;;5012221;28;96368;-75
2021/12/09 18:44:25;;;;;;;51.72;22.27;;;;;;;;;;5001095;28;96731;-74
2021/12/09 18:46:52;;;;;;;45.00;22.13;;;;;;;;;;5012809;28;96792;-74
2021/12/09 18:49:21;;;;;;;55.10;22.45;;;;;;;;;;5007156;28;97386;-75
2021/12/09 18:51:47;;;;;;;55.83;22.42;;;;;;;;;;4996925;28;95765;-75
2021/12/09 18:54:15;;;;;;;63.70;23.08;;;;;;;;;;5010859;28;97145;-75
2021/12/09 18:56:42;;;;;;;53.90;24.08;;;;;;;;;;5011662;28;95434;-75
2021/12/09 18:59:08;;;;;;;57.28;22.48;;;;;;;;;;5009636;28;96950;-75
2021/12/09 19:01:35;;;;;;;56.67;22.08;;;;;;;;;;5012051;28;97586;-75
2021/12/09 19:04:03;;;;;;;52.83;21.30;;;;;;;;;;5010899;28;95313;-76
2021/12/09 19:06:29;;;;;;;53.35;22.40;;;;;;;;;;5011814;28;96741;-75
2021/12/09 19:08:56;;;;;;;54.13;21.95;;;;;;;;;;5012047;28;99334;-74
2021/12/09 19:11:23;;;;;;;52.97;22.52;;;;;;;;;;5012004;28;95278;-75
2021/12/09 19:13:51;;;;;;;50.00;22.38;;;;;;;;;;5013046;28;97057;-75
2021/12/09 19:16:26;;;;;;;52.92;22.95;;;;;;;;;;5010878;28;96009;-74
2021/12/09 19:18:54;;;;;;;54.10;23.60;;;;;;;;;;5012197;28;95663;-74
2021/12/09 19:21:21;;;;;;;51.58;22.90;;;;;;;;;;5009135;28;97688;-75
2021/12/09 19:23:48;;;;;;;54.85;22.90;;;;;;;;;;5010419;28;95454;-75
2021/12/09 19:26:14;;;;;;;48.42;22.45;;;;;;;;;;5011707;28;96660;-75
2021/12/09 19:28:41;;;;;;;68.70;23.33;;;;;;;;;;5011017;28;96385;-75
2021/12/09 19:31:08;;;;;;;59.65;24.27;;;;;;;;;;5010286;28;95408;-74
2021/12/09 19:33:35;;;;;;;60.17;27.02;;;;;;;;;;5012063;28;97987;-75
2021/12/09 19:36:04;;;;;;;47.83;21.60;;;;;;;;;;5012075;28;95938;-75
2021/12/09 19:38:30;;;;;;;48.55;21.42;;;;;;;;;;5009816;28;98786;-75
2021/12/09 19:40:59;;;;;;;57.00;20.80;;;;;;;;;;5011401;28;97292;-75
2021/12/09 19:43:26;;;;;;;52.03;21.40;;;;;;;;;;5010903;28;95480;-75
2021/12/09 19:45:52;;;;;;;61.97;23.20;;;;;;;;;;5012028;28;96784;-75
2021/12/09 19:48:21;;;;;;;51.63;21.75;;;;;;;;;;5009111;28;97068;-75
2021/12/09 19:50:48;;;;;;;53.50;22.17;;;;;;;;;;4997816;28;95436;-75
2021/12/09 19:53:15;;;;;;;64.63;22.33;;;;;;;;;;5009546;28;96742;-75
2021/12/09 19:55:41;;;;;;;53.08;21.40;;;;;;;;;;5014314;28;97159;-75
2021/12/09 19:58:08;;;;;;;50.83;21.48;;;;;;;;;;5007190;28;96824;-76
2021/12/09 20:00:35;;;;;;;62.67;22.48;;;;;;;;;;4996037;28;97141;-75
2021/12/09 20:03:02;;;;;;;55.45;21.42;;;;;;;;;;5010274;28;95531;-76
2021/12/09 20:05:30;;;;;;;60.63;21.67;;;;;;;;;;5009452;28;96824;-76
2021/12/09 20:07:57;;;;;;;53.83;22.05;;;;;;;;;;5010885;28;97079;-75
2021/12/09 20:10:25;;;;;;;59.00;23.10;;;;;;;;;;4995019;28;95827;-76
2021/12/09 20:12:55;;;;;;;53.22;21.90;;;;;;;;;;5011204;28;97228;-76
2021/12/09 20:15:21;;;;;;;61.40;23.08;;;;;;;;;;5004182;28;96549;-74
2021/12/09 20:17:48;;;;;;;58.72;23.38;;;;;;;;;;5014202;28;95377;-75
2021/12/09 20:20:15;;;;;;;55.90;22.50;;;;;;;;;;5009433;28;97345;-74
2021/12/09 20:22:42;;;;;;;45.42;22.15;;;;;;;;;;5010849;28;95387;-75
2021/12/09 20:25:11;;;;;;;53.47;22.25;;;;;;;;;;5010860;28;97272;-75
2021/12/09 20:27:38;;;;;;;57.55;23.60;;;;;;;;;;5010833;28;97169;-74
2021/12/09 20:30:18;;;;;;;59.92;23.27;;;;;;;;;;5006165;28;95209;-76
2021/12/09 20:32:45;;;;;;;62.10;22.38;;;;;;;;;;5009434;28;96763;-75
2021/12/09 20:35:11;;;;;;;64.65;23.98;;;;;;;;;;5004900;28;97640;-76
2021/12/09 20:37:37;;;;;;;62.70;24.50;;;;;;;;;;5009684;28;95346;-75
2021/12/09 20:40:06;;;;;;;55.70;23.80;;;;;;;;;;5013426;28;97386;-75
2021/12/09 20:42:33;;;;;;;63.78;23.17;;;;;;;;;;5010627;28;95279;-75
2021/12/09 20:45:06;;;;;;;63.30;25.40;;;;;;;;;;5010484;28;96511;-75
2021/12/09 20:47:34;;;;;;;65.40;23.17;;;;;;;;;;5010288;28;97419;-75
2021/12/09 20:50:03;;;;;;;60.72;24.67;;;;;;;;;;5002098;28;96536;-75
2021/12/09 20:52:29;;;;;;;55.25;24.58;;;;;;;;;;5010417;28;96785;-74
2021/12/09 20:54:57;;;;;;;53.88;24.25;;;;;;;;;;5009212;28;97302;-75
2021/12/09 20:57:23;;;;;;;49.90;23.08;;;;;;;;;;5008318;28;95313;-75
2021/12/09 20:59:50;;;;;;;59.30;24.13;;;;;;;;;;5007943;28;96900;-74
2021/12/09 21:02:16;;;;;;;54.55;25.92;;;;;;;;;;5007617;28;96242;-75
2021/12/09 21:04:45;;;;;;;64.45;24.60;;;;;;;;;;5004054;28;96970;-74
2021/12/09 21:07:23;;;;;;;53.20;23.00;;;;;;;;;;4999242;28;97570;-76
2021/12/09 21:09:49;;;;;;;64.72;22.90;;;;;;;;;;5011242;28;95195;-74
2021/12/09 21:12:16;;;;;;;57.33;22.73;;;;;;;;;;5009789;28;97204;-75
2021/12/09 21:14:42;;;;;;;57.33;22.38;;;;;;;;;;5010155;28;97213;-75
2021/12/09 21:17:08;;;;;;;64.78;23.27;;;;;;;;;;5008264;28;95315;-74
2021/12/09 21:19:42;;;;;;;57.80;22.75;;;;;;;;;;5009547;28;96951;-74
2021/12/09 21:22:09;;;;;;;49.78;23.73;;;;;;;;;;5003339;28;97933;-76
2021/12/09 21:24:35;;;;;;;51.50;22.52;;;;;;;;;;5014939;28;95202;-75
2021/12/09 21:27:02;;;;;;;47.03;20.85;;;;;;;;;;5008802;28;96019;-75
2021/12/09 21:29:28;;;;;;;54.85;23.05;;;;;;;;;;5010474;28;95299;-75
2021/12/09 21:31:55;;;;;;;51.85;23.67;;;;;;;;;;5009770;28;96011;-75
2021/12/09 21:34:26;;;;;;;54.35;22.70;;;;;;;;;;5006353;28;97228;-75
2021/12/09 21:37:00;;;;;;;57.88;23.50;;;;;;;;;;5001999;28;96838;-75
2021/12/09 21:39:27;;;;;;;53.38;21.63;;;;;;;;;;5004978;28;96741;-74
2021/12/09 21:41:59;;;;;;;59.38;21.63;;;;;;;;;;5005279;28;97378;-76
2021/12/09 21:44:29;;;;;;;50.28;21.25;;;;;;;;;;5005543;28;95422;-75
2021/12/09 21:46:56;;;;;;;49.90;20.15;;;;;;;;;;5004872;28;98574;-76
2021/12/09 21:49:32;;;;;;;54.83;22.02;;;;;;;;;;5009636;28;95554;-76
2021/12/09 21:52:00;;;;;;;51.80;21.30;;;;;;;;;;5009061;28;95858;-76
2021/12/09 21:54:27;;;;;;;46.83;21.20;;;;;;;;;;5010141;28;97326;-76
2021/12/09 21:56:55;;;;;;;47.58;21.00;;;;;;;;;;5010459;28;95372;-76
2021/12/09 21:59:34;;;;;;;40.75;20.45;;;;;;;;;;5011536;28;97558;-76
2021/12/09 22:02:03;;;;;;;45.50;19.85;;;;;;;;;;5011819;28;96563;-74
2021/12/09 22:04:31;;;;;;;46.05;21.08;;;;;;;;;;5014877;28;95487;-74
2021/12/09 22:06:59;;;;;;;44.22;20.15;;;;;;;;;;5018309;28;96837;-74
2021/12/09 22:09:35;;;;;;;50.00;20.27;;;;;;;;;;5014490;28;95226;-75
2021/12/09 22:12:02;;;;;;;45.47;18.90;;;;;;;;;;5014787;28;96898;-74
2021/12/09 22:14:29;;;;;;;41.28;18.98;;;;;;;;;;5012606;28;97700;-74
2021/12/09 22:16:57;;;;;;;44.08;18.77;;;;;;;;;;5013995;28;95753;-74
2021/12/09 22:19:27;;;;;;;44.83;18.38;;;;;;;;;;5013850;28;97154;-75
2021/12/09 22:21:54;;;;;;;40.92;18.67;;;;;;;;;;5014748;28;97365;-74
2021/12/09 22:24:21;;;;;;;43.50;18.25;;;;;;;;;;5014196;28;96108;-74
2021/12/09 22:26:48;;;;;;;58.67;20.23;;;;;;;;;;5013776;28;96784;-74
2021/12/09 22:29:15;;;;;;;41.22;17.58;;;;;;;;;;5017051;28;97246;-74
2021/12/09 22:31:42;;;;;;;39.08;17.10;;;;;;;;;;5013211;28;96775;-74
2021/12/09 22:34:09;;;;;;;50.00;16.48;;;;;;;;;;5014426;28;97256;-74
2021/12/09 22:36:35;;;;;;;48.60;16.77;;;;;;;;;;5014663;28;95351;-74
2021/12/09 22:39:03;;;;;;;33.33;14.88;;;;;;;;;;5013696;28;96996;-75
2021/12/09 22:41:29;;;;;;;45.00;16.70;;;;;;;;;;5014007;28;96993;-74
2021/12/09 22:43:56;;;;;;;39.25;14.75;;;;;;;;;;5014236;28;96411;-74
2021/12/09 22:46:22;;;;;;;37.45;15.20;;;;;;;;;;5013862;28;96837;-75
2021/12/09 22:48:48;;;;;;;33.20;14.18;;;;;;;;;;5014283;28;97297;-75
2021/12/09 22:51:20;;;;;;;35.85;13.82;;;;;;;;;;5017177;28;95346;-74
2021/12/09 22:53:49;;;;;;;36.65;14.20;;;;;;;;;;5014157;28;97257;-74
2021/12/09 22:56:16;;;;;;;33.42;12.38;;;;;;;;;;5013543;28;95216;-74
2021/12/09 22:58:44;;;;;;;36.28;12.10;;;;;;;;;;5013244;28;97449;-74
2021/12/09 23:01:13;;;;;;;34.15;11.40;;;;;;;;;;5012903;28;97319;-75
2021/12/09 23:03:41;;;;;;;29.92;11.80;;;;;;;;;;5014006;28;96200;-74
2021/12/09 23:06:09;;;;;;;30.13;10.55;;;;;;;;;;5011976;28;96818;-74
2021/12/09 23:08:43;;;;;;;34.97;10.38;;;;;;;;;;5012934;28;97770;-74
2021/12/09 23:11:10;;;;;;;33.72;10.40;;;;;;;;;;5013679;28;95242;-74
2021/12/09 23:13:39;;;;;;;28.52;9.90;;;;;;;;;;5016227;28;96762;-74
2021/12/09 23:16:12;;;;;;;40.85;10.32;;;;;;;;;;5014018;28;95174;-76
2021/12/09 23:18:41;;;;;;;24.73;10.57;;;;;;;;;;5013706;28;96499;-75